Time;durP1;ratioP1;P1;durP2;ratioP2;P2;SDS_P1;SDS_P2;PMS_P1;PMS_P2;Temp;Humidity;BMP_temperature;BMP_pressure;BME280_temperature;BME280_humidity;BME280_pressure;Samples;Min_cycle;Max_cycle;Signal;HPM_P1;HPM_P2
2022/05/29 04:32:59;;;;;;;;;1.50;1.50;;;;;13.81;51.98;101392.19;5078719;28;45323;-61
2022/05/29 04:35:27;;;;;;;;;1.00;1.00;;;;;13.78;51.95;101390.53;5079534;27;45356;-61
2022/05/29 04:37:52;;;;;;;;;1.00;1.00;;;;;13.73;51.73;101387.19;5080771;28;45356;-60
2022/05/29 04:40:18;;;;;;;;;1.00;1.00;;;;;13.75;52.32;101398.78;5080406;28;45504;-62
2022/05/29 04:42:43;;;;;;;;;1.50;1.50;;;;;13.74;51.97;101402.41;5069833;28;45224;-61
2022/05/29 04:45:09;;;;;;;;;0.00;0.00;;;;;13.64;52.24;101380.44;5042234;28;45249;-61
2022/05/29 04:47:35;;;;;;;;;0.00;0.00;;;;;13.80;52.13;101398.53;5059953;28;45638;-61
2022/05/29 04:50:00;;;;;;;;;6.00;3.00;;;;;13.81;52.16;101403.84;5060049;28;46114;-60
2022/05/29 04:52:26;;;;;;;;;1.75;1.75;;;;;13.70;51.95;101376.56;5059780;28;45646;-60
2022/05/29 04:54:51;;;;;;;;;1.00;1.00;;;;;13.82;52.01;101393.94;5060163;28;45344;-61
2022/05/29 04:57:18;;;;;;;;;2.50;2.00;;;;;13.85;52.01;101394.69;5060341;28;45309;-61
2022/05/29 04:59:44;;;;;;;;;2.00;2.00;;;;;13.89;52.42;101395.41;5060173;28;46054;-60
2022/05/29 05:02:09;;;;;;;;;2.00;2.00;;;;;13.89;51.56;101393.56;5059607;28;45326;-61
2022/05/29 05:04:35;;;;;;;;;3.00;1.25;;;;;13.91;52.02;101380.03;5059739;28;45352;-61
2022/05/29 05:07:00;;;;;;;;;3.25;2.00;;;;;13.92;52.07;101381.78;5059836;28;45521;-61
2022/05/29 05:09:27;;;;;;;;;1.00;1.00;;;;;13.97;51.85;101385.97;5059707;28;46343;-60
2022/05/29 05:11:54;;;;;;;;;2.00;2.00;;;;;13.98;51.57;101397.63;5059827;28;45363;-61
2022/05/29 05:14:21;;;;;;;;;2.00;2.00;;;;;13.94;51.60;101383.47;5040718;28;45446;-61
2022/05/29 05:16:47;;;;;;;;;1.00;1.00;;;;;13.98;51.92;101397.63;5059402;28;45470;-62
2022/05/29 05:19:14;;;;;;;;;2.00;2.00;;;;;13.98;52.00;101392.25;5058756;28;47075;-59
2022/05/29 05:21:39;;;;;;;;;3.25;2.00;;;;;14.03;51.59;101392.91;5079776;28;45384;-61
2022/05/29 05:24:05;;;;;;;;;2.00;2.00;;;;;14.10;51.39;101396.16;5080058;28;45283;-61
2022/05/29 05:26:31;;;;;;;;;2.75;2.75;;;;;14.09;51.31;101397.13;5061727;28;45410;-60
2022/05/29 05:28:57;;;;;;;;;2.00;2.00;;;;;14.07;51.70;101391.78;5079316;28;46004;-60
2022/05/29 05:31:22;;;;;;;;;2.25;2.25;;;;;14.11;51.58;101388.00;5070793;28;45388;-61
2022/05/29 05:33:48;;;;;;;;;1.00;1.00;;;;;14.18;51.76;101396.66;5059294;28;45533;-61
2022/05/29 05:36:15;;;;;;;;;4.00;2.00;;;;;14.24;51.45;101396.34;5059832;28;45328;-61
2022/05/29 05:38:40;;;;;;;;;2.00;1.50;;;;;14.26;51.30;101399.84;5059161;28;45446;-61
2022/05/29 05:41:09;;;;;;;;;1.00;1.00;;;;;14.21;51.57;101389.25;5059560;28;45335;-60
2022/05/29 05:43:34;;;;;;;;;2.00;2.00;;;;;14.30;51.08;101406.81;5042055;28;45321;-61
2022/05/29 05:45:59;;;;;;;;;2.25;2.25;;;;;14.27;51.01;101404.28;5039057;28;45593;-61
2022/05/29 05:48:29;;;;;;;;;4.75;2.00;;;;;14.28;51.23;101389.84;5038544;28;46061;-61
2022/05/29 05:50:57;;;;;;;;;3.75;2.25;;;;;14.23;50.70;101390.06;5039307;28;45249;-61
2022/05/29 05:53:23;;;;;;;;;3.00;1.75;;;;;14.30;50.92;101393.31;5038953;28;45513;-61
2022/05/29 05:55:49;;;;;;;;;3.00;3.00;;;;;14.37;50.79;101395.63;5039265;28;45517;-60
2022/05/29 05:58:14;;;;;;;;;1.00;1.00;;;;;14.40;50.48;101400.03;5038838;28;45925;-61
2022/05/29 06:00:39;;;;;;;;;2.75;2.75;;;;;14.28;50.02;101374.53;5038997;28;45342;-61
2022/05/29 06:03:05;;;;;;;;;1.00;1.00;;;;;14.42;50.18;101397.25;5038426;28;45510;-61
2022/05/29 06:05:30;;;;;;;;;1.50;1.00;;;;;14.32;50.68;101378.81;5039053;28;45337;-61
2022/05/29 06:07:56;;;;;;;;;3.00;2.00;;;;;14.42;50.15;101402.66;5038449;28;46161;-61
2022/05/29 06:10:21;;;;;;;;;3.00;3.00;;;;;14.49;50.50;101393.28;5038909;28;45468;-61
2022/05/29 06:12:47;;;;;;;;;3.00;1.00;;;;;14.43;50.15;101369.31;5038788;28;45268;-60
2022/05/29 06:15:12;;;;;;;;;1.00;1.00;;;;;14.50;49.58;101366.22;5038735;28;45436;-61
2022/05/29 06:17:38;;;;;;;;;1.25;1.25;;;;;14.63;49.63;101380.81;5037959;28;46203;-61
2022/05/29 06:20:06;;;;;;;;;1.75;1.00;;;;;14.74;49.79;101382.94;5038877;28;45253;-60
2022/05/29 06:22:35;;;;;;;;;3.00;1.75;;;;;14.83;49.47;101384.28;5038637;28;45392;-60
2022/05/29 06:25:01;;;;;;;;;2.50;2.50;;;;;14.87;49.09;101381.38;5038521;28;45461;-61
2022/05/29 06:27:28;;;;;;;;;1.00;1.00;;;;;14.89;48.97;101376.72;5038341;28;46105;-60
2022/05/29 06:29:53;;;;;;;;;1.75;1.75;;;;;14.91;48.90;101369.44;5038693;28;45434;-60
2022/05/29 06:32:19;;;;;;;;;1.00;1.00;;;;;14.99;48.83;101383.38;5038063;28;45337;-61
2022/05/29 06:34:44;;;;;;;;;1.50;1.25;;;;;15.11;48.57;101379.16;5049527;28;45467;-60
2022/05/29 06:37:10;;;;;;;;;0.75;0.75;;;;;15.22;48.18;101379.44;5057232;28;45414;-60
2022/05/29 06:39:36;;;;;;;;;1.75;1.75;;;;;15.37;47.75;101384.00;5058369;28;45343;-71
2022/05/29 06:42:02;;;;;;;;;1.00;1.00;;;;;15.43;47.09;101388.19;5053782;28;45338;-68
2022/05/29 06:44:27;;;;;;;;;2.00;2.00;;;;;15.39;46.94;101378.50;5038402;28;45392;-69
2022/05/29 06:46:53;;;;;;;;;1.25;1.25;;;;;15.46;47.19;101391.59;5037984;28;45416;-70
2022/05/29 06:49:18;;;;;;;;;3.00;2.00;;;;;15.46;47.11;101394.28;5038090;28;45398;-70
2022/05/29 06:51:44;;;;;;;;;2.75;1.25;;;;;15.35;47.37;101374.22;5038595;28;45364;-69
2022/05/29 06:54:09;;;;;;;;;1.75;1.75;;;;;15.44;47.09;101389.94;5038218;28;45418;-71
2022/05/29 06:56:34;;;;;;;;;1.00;1.00;;;;;15.44;46.79;101387.22;5038055;28;45957;-72
2022/05/29 06:59:01;;;;;;;;;1.00;1.00;;;;;15.42;46.30;101386.44;5038340;28;45359;-70
2022/05/29 07:07:13;;;;;;;;;1.25;1.00;;;;;15.24;46.94;101385.63;5051123;28;45437;-71
2022/05/29 07:09:41;;;;;;;;;1.00;1.00;;;;;15.24;46.83;101384.75;5057811;28;45378;-70
2022/05/29 07:12:27;;;;;;;;;0.75;0.75;;;;;15.24;46.58;101382.03;5058629;28;45328;-63
2022/05/29 07:14:58;;;;;;;;;1.75;1.00;;;;;15.28;45.76;101387.22;5057315;28;45692;-64
2022/05/29 07:17:23;;;;;;;;;2.25;1.00;;;;;15.34;46.27;101378.75;5056774;28;45439;-66
2022/05/29 07:19:49;;;;;;;;;0.00;0.00;;;;;15.40;46.20;101374.81;5053449;28;45723;-64
2022/05/29 07:22:15;;;;;;;;;1.00;1.00;;;;;15.50;45.23;101390.44;5056719;28;45481;-63
2022/05/29 07:24:43;;;;;;;;;2.00;1.00;;;;;15.50;44.99;101374.22;5055592;28;45446;-64
2022/05/29 07:27:09;;;;;;;;;1.75;1.75;;;;;15.59;45.00;101380.09;5054489;28;45277;-64
2022/05/29 07:29:34;;;;;;;;;1.75;1.75;;;;;15.64;44.28;101375.34;5056378;28;45391;-64
2022/05/29 07:32:00;;;;;;;;;0.50;0.50;;;;;15.65;43.82;101377.09;5053973;28;45287;-63
2022/05/29 07:34:27;;;;;;;;;1.00;1.00;;;;;15.72;44.02;101384.75;5055967;28;45366;-64
2022/05/29 07:36:53;;;;;;;;;2.00;2.00;;;;;15.76;44.02;101372.78;5057160;28;47032;-63
2022/05/29 07:39:21;;;;;;;;;1.00;1.00;;;;;15.85;43.82;101380.38;5059174;28;45432;-64
2022/05/29 07:44:30;;;;;;;;;3.00;1.00;;;;;15.84;43.27;101373.22;5055926;28;45427;-64
2022/05/29 07:46:56;;;;;;;;;4.00;1.00;;;;;15.80;41.93;101378.91;5059850;28;46248;-65
2022/05/29 07:49:22;;;;;;;;;2.00;0.00;;;;;15.79;42.50;101375.31;5061284;28;45437;-63
2022/05/29 07:51:48;;;;;;;;;1.00;1.00;;;;;15.82;41.84;101371.59;5061089;28;45446;-64
2022/05/29 07:54:14;;;;;;;;;1.00;1.00;;;;;15.87;42.10;101366.78;5061322;28;45544;-62
2022/05/29 07:56:40;;;;;;;;;2.00;0.75;;;;;15.86;42.11;101370.44;5060755;28;46246;-62
2022/05/29 07:59:05;;;;;;;;;0.50;0.50;;;;;15.92;41.61;101377.31;5061118;28;45398;-63
2022/05/29 08:01:31;;;;;;;;;2.00;1.00;;;;;15.96;40.33;101370.78;5060940;28;45321;-62
2022/05/29 08:03:56;;;;;;;;;0.00;0.00;;;;;15.98;39.41;101369.72;5061015;28;45281;-63
2022/05/29 08:06:22;;;;;;;;;1.00;1.00;;;;;16.00;40.13;101354.25;5057754;28;46109;-63
2022/05/29 08:08:47;;;;;;;;;2.00;1.00;;;;;16.07;40.24;101352.97;5060065;28;45455;-64
2022/05/29 08:11:15;;;;;;;;;0.00;0.00;;;;;16.17;38.99;101351.44;5059310;28;45460;-63
2022/05/29 08:13:40;;;;;;;;;1.00;1.00;;;;;16.21;38.87;101358.41;5060506;28;45446;-62
2022/05/29 08:16:06;;;;;;;;;1.00;0.00;;;;;16.22;38.88;101356.59;5040685;28;45383;-63
2022/05/29 08:18:31;;;;;;;;;1.00;1.00;;;;;16.26;39.14;101359.00;5040752;28;45319;-63
2022/05/29 08:20:57;;;;;;;;;1.25;1.25;;;;;16.31;39.60;101364.16;5040604;28;45466;-63
2022/05/29 08:23:23;;;;;;;;;4.00;1.00;;;;;16.37;40.21;101347.53;5040127;28;45527;-64
2022/05/29 08:31:19;;;;;;;;;2.00;0.50;;;;;16.43;39.56;101346.28;5040054;28;45316;-58
2022/05/29 08:33:46;;;;;;;;;0.00;0.00;;;;;16.45;39.71;101345.25;5043613;28;45566;-60
2022/05/29 08:36:19;;;;;;;;;1.00;1.00;;;;;16.48;39.55;101352.31;5060466;28;46439;-60
2022/05/29 08:38:47;;;;;;;;;0.50;0.50;;;;;16.53;39.95;101347.47;5060454;28;45314;-59
2022/05/29 08:41:17;;;;;;;;;1.75;0.75;;;;;16.59;39.88;101338.97;5059857;28;45360;-58
2022/05/29 08:44:04;;;;;;;;;1.00;0.00;;;;;16.66;38.48;101332.28;5041773;28;46885;-60
2022/05/29 08:46:45;;;;;;;;;0.00;0.00;;;;;16.74;38.36;101334.50;5060081;28;45429;-59
2022/05/29 08:49:16;;;;;;;;;0.25;0.25;;;;;16.77;39.12;101340.59;5060896;28;45346;-60
2022/05/29 08:51:58;;;;;;;;;0.00;0.00;;;;;16.77;38.50;101342.41;5060215;28;45309;-59
2022/05/29 08:54:47;;;;;;;;;1.00;0.00;;;;;16.69;39.04;101323.94;5060119;28;46133;-60
2022/05/29 08:57:41;;;;;;;;;0.75;0.75;;;;;16.70;38.71;101330.22;5059882;28;46383;-60
2022/05/29 09:00:15;;;;;;;;;2.00;1.00;;;;;16.73;39.20;101330.06;5060226;28;45332;-58
2022/05/29 09:02:46;;;;;;;;;0.50;0.50;;;;;16.74;38.48;101320.97;5059798;28;45458;-58
2022/05/29 09:05:20;;;;;;;;;1.00;1.00;;;;;16.63;38.57;101321.63;5059986;28;45379;-58
2022/05/29 09:07:49;;;;;;;;;0.75;0.75;;;;;16.68;38.59;101327.59;5059605;28;46391;-58
2022/05/29 09:10:31;;;;;;;;;1.00;1.00;;;;;16.68;38.74;101324.91;5059239;28;45253;-59
2022/05/29 09:12:59;;;;;;;;;2.50;1.00;;;;;16.69;38.98;101309.53;5059754;28;45435;-58
2022/05/29 09:15:51;;;;;;;;;0.25;0.25;;;;;16.74;38.99;101311.00;5059625;28;45175;-58
2022/05/29 09:18:47;;;;;;;;;1.00;1.00;;;;;16.75;39.20;101309.16;5051265;28;46557;-57
2022/05/29 09:21:16;;;;;;;;;1.50;1.00;;;;;16.84;38.01;101306.72;5059821;28;45394;-58
2022/05/29 09:23:53;;;;;;;;;0.50;0.50;;;;;16.88;37.53;101304.72;5059614;28;45229;-58
2022/05/29 09:26:19;;;;;;;;;1.00;1.00;;;;;16.88;36.38;101302.00;5058997;28;45580;-59
2022/05/29 09:28:46;;;;;;;;;1.00;1.00;;;;;16.87;36.43;101300.25;5059592;28;45327;-58
2022/05/29 09:31:19;;;;;;;;;1.00;1.00;;;;;16.88;36.60;101300.16;5059484;27;45380;-59
2022/05/29 09:33:46;;;;;;;;;0.00;0.00;;;;;16.88;36.89;101297.47;5059320;28;45356;-58
2022/05/29 09:36:51;;;;;;;;;1.00;1.00;;;;;16.90;36.23;101297.38;5059085;28;45466;-58
2022/05/29 09:39:17;;;;;;;;;0.50;0.50;;;;;16.90;36.23;101294.66;5041733;28;46823;-59
2022/05/29 09:41:55;;;;;;;;;0.25;0.25;;;;;16.91;36.38;101285.56;5056585;28;45367;-58
2022/05/29 09:44:22;;;;;;;;;4.25;1.00;;;;;16.95;36.72;101282.56;5038016;28;45318;-58
2022/05/29 09:46:52;;;;;;;;;0.00;0.00;;;;;17.06;37.38;101294.53;5038687;28;45397;-59
2022/05/29 09:49:41;;;;;;;;;2.50;1.00;;;;;17.15;36.71;101291.25;5038936;28;45991;-58
2022/05/29 09:52:19;;;;;;;;;0.75;0.75;;;;;17.24;37.23;101290.66;5046923;28;45687;-59
2022/05/29 09:54:52;;;;;;;;;1.00;1.00;;;;;17.30;36.79;101274.84;5056617;28;45411;-58
2022/05/29 09:57:31;;;;;;;;;1.00;1.00;;;;;17.38;36.73;101283.34;5038962;28;45297;-59
2022/05/29 10:00:14;;;;;;;;;0.00;0.00;;;;;17.38;36.67;101274.34;5038048;28;46641;-59
2022/05/29 10:02:45;;;;;;;;;1.50;0.25;;;;;17.37;35.88;101273.47;5038226;28;45383;-58
2022/05/29 10:05:37;;;;;;;;;1.00;1.00;;;;;17.39;35.94;101278.81;5043905;28;45309;-59
2022/05/29 10:08:31;;;;;;;;;0.00;0.00;;;;;17.39;35.34;101281.53;5059094;28;45391;-59
2022/05/29 10:11:16;;;;;;;;;0.75;0.75;;;;;17.42;35.54;101283.16;5058590;28;46113;-59
2022/05/29 10:13:43;;;;;;;;;0.75;0.75;;;;;17.44;35.45;101273.94;5040189;28;45775;-59
2022/05/29 10:16:10;;;;;;;;;0.00;0.00;;;;;17.44;36.03;101273.94;5022189;28;45424;-57
2022/05/29 10:18:38;;;;;;;;;4.00;1.00;;;;;17.42;35.71;101269.63;5050663;28;45500;-59
2022/05/29 10:21:14;;;;;;;;;1.00;1.00;;;;;17.39;36.15;101270.69;5058703;28;45359;-58
2022/05/29 10:23:40;;;;;;;;;1.00;1.00;;;;;17.42;36.65;101278.63;5057741;28;45387;-59
2022/05/29 10:26:30;;;;;;;;;0.00;0.00;;;;;17.42;36.68;101275.03;5049009;28;45713;-58
2022/05/29 10:28:56;;;;;;;;;1.00;1.00;;;;;17.42;36.82;101264.19;5037923;28;45369;-58
2022/05/29 10:31:26;;;;;;;;;1.00;1.00;;;;;17.48;36.99;101264.66;5038023;28;45278;-58
2022/05/29 10:34:22;;;;;;;;;1.00;1.00;;;;;17.48;37.27;101271.91;5023720;28;45474;-59
2022/05/29 10:36:48;;;;;;;;;0.75;0.75;;;;;17.42;36.48;101253.34;5040584;28;45609;-57
2022/05/29 10:39:20;;;;;;;;;0.00;0.00;;;;;17.45;36.12;101261.25;5039964;28;46479;-59
2022/05/29 10:41:46;;;;;;;;;1.00;1.00;;;;;17.50;36.60;101265.44;5055440;28;46316;-58
2022/05/29 10:44:33;;;;;;;;;1.00;1.00;;;;;17.60;35.50;101255.72;5038029;28;45315;-59
2022/05/29 10:47:33;;;;;;;;;2.00;2.00;;;;;17.70;35.49;101247.84;5037499;28;45225;-58
2022/05/29 10:50:21;;;;;;;;;1.25;1.00;;;;;17.82;35.30;101248.84;5037488;28;45482;-58
2022/05/29 10:53:16;;;;;;;;;3.50;1.00;;;;;17.97;34.83;101231.53;5038507;28;47536;-58
2022/05/29 10:55:44;;;;;;;;;5.00;2.00;;;;;18.07;35.45;101238.94;5039322;28;45488;-58
2022/05/29 10:58:47;;;;;;;;;1.75;1.00;;;;;18.24;33.98;101239.59;5041373;28;45467;-59
2022/05/29 11:04:45;;;;;;;;;0.25;0.25;;;;;18.40;32.86;101237.53;5038294;28;45321;-57
2022/05/29 11:08:01;;;;;;;;;1.50;1.50;;;;;18.39;32.72;101235.81;5038474;28;45270;-55
2022/05/29 11:10:43;;;;;;;;;1.75;1.75;;;;;18.28;33.14;101238.44;4987644;28;45743;-58
2022/05/29 11:13:14;;;;;;;;;2.00;1.00;;;;;18.24;33.88;101231.47;4999505;28;45507;-56
2022/05/29 11:15:42;;;;;;;;;1.00;1.00;;;;;18.21;34.17;101221.69;5042335;28;45440;-55
2022/05/29 11:18:20;;;;;;;;;1.00;1.00;;;;;18.29;34.30;101232.03;5061570;28;45290;-57
2022/05/29 11:21:05;;;;;;;;;1.50;1.00;;;;;18.40;33.91;101224.84;5061859;28;45356;-57
2022/05/29 11:23:30;;;;;;;;;1.75;1.75;;;;;18.50;32.98;101230.50;5061764;28;45565;-56
2022/05/29 11:26:26;;;;;;;;;1.00;1.00;;;;;18.58;33.97;101219.09;5061684;28;46346;-56
2022/05/29 11:29:03;;;;;;;;;2.00;2.00;;;;;18.69;34.58;101219.22;5047580;28;45327;-55
2022/05/29 11:31:35;;;;;;;;;2.00;2.00;;;;;18.65;34.83;101213.13;5061047;27;45217;-57
2022/05/29 11:34:24;;;;;;;;;4.75;3.25;;;;;18.61;35.36;101218.91;5061714;28;45277;-56
2022/05/29 11:37:02;;;;;;;;;3.75;2.00;;;;;18.48;35.02;101205.28;5059545;28;46374;-58
2022/05/29 11:39:37;;;;;;;;;3.00;2.00;;;;;18.43;35.29;101202.91;5058662;28;45370;-56
2022/05/29 11:42:19;;;;;;;;;1.25;1.25;;;;;18.35;35.10;101197.16;5042157;28;45460;-58
2022/05/29 11:44:54;;;;;;;;;2.00;2.00;;;;;18.33;35.28;101204.53;5043309;28;45545;-55
2022/05/29 11:53:32;;;;;;;;;1.75;1.75;;;;;18.23;34.96;101195.31;5055754;28;45353;-57
2022/05/29 11:56:03;;;;;;;;;2.00;2.00;;;;;18.26;34.87;101184.25;5058446;28;45246;-55
2022/05/29 11:58:34;;;;;;;;;2.50;2.50;;;;;18.24;34.63;101178.03;5038754;28;46109;-56
2022/05/29 12:01:09;;;;;;;;;3.00;3.00;;;;;18.25;34.31;101168.94;5056108;28;45451;-57
2022/05/29 12:03:59;;;;;;;;;1.00;1.00;;;;;18.33;33.64;101163.81;5060412;28;45423;-55
2022/05/29 12:06:33;;;;;;;;;2.00;2.00;;;;;18.42;32.84;101154.16;5059841;28;45443;-56
2022/05/29 12:09:01;;;;;;;;;1.00;1.00;;;;;18.59;33.52;101151.13;5060293;28;45454;-55
2022/05/29 12:12:05;;;;;;;;;1.00;1.00;;;;;18.77;33.99;101151.63;5059864;28;45357;-56
2022/05/29 12:14:37;;;;;;;;;2.50;2.50;;;;;18.89;32.56;101150.69;5027912;28;45448;-56
2022/05/29 12:17:12;;;;;;;;;2.75;1.00;;;;;19.00;32.87;101145.34;5058740;28;46131;-57
2022/05/29 12:20:03;;;;;;;;;1.00;1.00;;;;;19.14;32.46;101150.59;5045996;28;46629;-57
2022/05/29 12:22:35;;;;;;;;;1.00;1.00;;;;;19.32;32.80;101145.63;5050806;28;45384;-60
2022/05/29 12:25:26;;;;;;;;;1.00;1.00;;;;;19.66;32.03;101133.06;5039536;28;45366;-60
2022/05/29 12:27:54;;;;;;;;;2.00;2.00;;;;;19.81;31.07;101128.31;5047343;28;45434;-61
2022/05/29 12:30:37;;;;;;;;;2.50;0.50;;;;;20.03;30.95;101140.09;5044630;28;45688;-61
2022/05/29 12:33:12;;;;;;;;;1.00;1.00;;;;;20.23;30.31;101134.91;5063064;28;45441;-61
2022/05/29 12:35:47;;;;;;;;;2.25;2.25;;;;;20.26;30.48;101124.63;5077926;28;45491;-63
2022/05/29 12:38:44;;;;;;;;;8.50;6.00;;;;;20.39;30.53;101127.28;5077571;28;45709;-63
2022/05/29 12:41:30;;;;;;;;;3.75;3.75;;;;;20.46;29.92;101131.25;5066788;28;46164;-64
2022/05/29 12:43:58;;;;;;;;;5.50;4.75;;;;;20.43;30.48;101134.19;5062186;28;45228;-64
2022/05/29 12:47:08;;;;;;;;;1.00;1.00;;;;;20.32;30.91;101123.28;5065392;28;45444;-63
2022/05/29 12:49:58;;;;;;;;;1.50;1.50;;;;;20.13;30.62;101133.91;5049342;28;45763;-62
2022/05/29 12:52:58;;;;;;;;;2.25;2.25;;;;;19.99;31.48;101135.84;5077473;28;45469;-64
2022/05/29 12:55:29;;;;;;;;;0.50;0.50;;;;;19.94;30.24;101124.47;5062368;28;45691;-63
2022/05/29 12:58:19;;;;;;;;;1.00;1.00;;;;;19.85;30.12;101127.94;5070969;28;45535;-62
2022/05/29 13:00:50;;;;;;;;;2.25;2.00;;;;;19.81;29.90;101123.72;5076679;28;45344;-63
2022/05/29 13:03:35;;;;;;;;;1.75;1.75;;;;;19.69;29.93;101132.84;5076775;28;46257;-61
2022/05/29 13:06:19;;;;;;;;;2.25;2.00;;;;;19.64;29.98;101129.63;5070024;28;45676;-60
2022/05/29 13:08:59;;;;;;;;;3.25;2.50;;;;;19.57;30.03;101126.47;5069667;28;45481;-64
2022/05/29 13:11:33;;;;;;;;;1.00;1.00;;;;;19.52;29.37;101120.53;5076077;28;45369;-64
2022/05/29 13:14:04;;;;;;;;;2.00;1.50;;;;;19.47;29.80;101113.69;5062857;28;45432;-65
2022/05/29 13:16:40;;;;;;;;;0.50;0.50;;;;;19.52;29.63;101119.66;5065507;28;45832;-65
2022/05/29 13:19:17;;;;;;;;;1.50;1.50;;;;;19.58;29.79;101109.19;5065855;28;45874;-63
2022/05/29 13:22:05;;;;;;;;;1.25;1.25;;;;;19.68;29.39;101108.47;5059266;28;45553;-63
2022/05/29 13:24:36;;;;;;;;;2.00;2.00;;;;;19.96;29.82;101100.75;5066729;28;45874;-64
2022/05/29 13:27:11;;;;;;;;;1.75;1.75;;;;;20.17;28.57;101100.88;5068073;28;45448;-64
2022/05/29 13:29:43;;;;;;;;;2.00;0.50;;;;;20.32;29.28;101106.94;5065774;28;45466;-63
2022/05/29 13:32:14;;;;;;;;;2.00;2.00;;;;;20.43;30.83;101093.34;5055606;28;45429;-65
2022/05/29 13:34:43;;;;;;;;;1.00;1.00;;;;;20.45;28.74;101094.09;5047228;28;45414;-64
2022/05/29 13:37:20;;;;;;;;;3.00;1.25;;;;;20.33;28.24;101090.47;5049168;28;45669;-65
2022/05/29 13:39:57;;;;;;;;;1.00;1.00;;;;;20.26;28.25;101081.06;5035737;28;45439;-64
2022/05/29 13:42:39;;;;;;;;;3.75;3.75;;;;;20.17;29.44;101080.94;5043671;28;45448;-65
2022/05/29 13:45:23;;;;;;;;;1.50;1.50;;;;;20.11;29.17;101078.72;5057424;28;45442;-65
2022/05/29 13:47:49;;;;;;;;;3.00;3.00;;;;;20.01;29.38;101075.88;5057011;28;45495;-64
2022/05/29 13:50:18;;;;;;;;;1.50;1.00;;;;;19.86;29.02;101075.25;5039226;28;45483;-63
2022/05/29 13:53:00;;;;;;;;;2.00;2.00;;;;;19.73;29.75;101076.34;5055910;28;45842;-63
2022/05/29 13:55:31;;;;;;;;;2.00;2.00;;;;;19.66;30.86;101070.50;5045271;28;47094;-63
2022/05/29 14:03:58;;;;;;;;;1.50;1.50;;;;;19.56;31.44;101050.47;5057174;28;45365;-63
2022/05/29 14:06:29;;;;;;;;;1.00;1.00;;;;;19.73;31.08;101076.34;5057192;28;45345;-65
2022/05/29 14:09:18;;;;;;;;;0.75;0.75;;;;;19.58;30.51;101043.91;5057000;28;45539;-63
2022/05/29 14:11:49;;;;;;;;;2.00;2.00;;;;;19.77;30.82;101066.94;5026637;28;45354;-64
2022/05/29 14:14:29;;;;;;;;;3.00;3.00;;;;;19.89;31.16;101055.09;5057004;28;45462;-62
2022/05/29 14:16:59;;;;;;;;;0.75;0.75;;;;;20.21;30.31;101053.38;5056305;28;46350;-61
2022/05/29 14:19:24;;;;;;;;;2.25;2.25;;;;;20.74;29.41;101051.72;5043186;28;45529;-62
2022/05/29 14:22:12;;;;;;;;;1.75;1.75;;;;;21.34;28.45;101036.63;5056402;28;45297;-62
2022/05/29 14:24:53;;;;;;;;;2.50;2.50;;;;;21.92;27.64;101036.13;5057101;28;45297;-62
2022/05/29 14:27:27;;;;;;;;;6.00;4.00;;;;;22.19;27.75;101014.56;5056155;28;46245;-62
2022/05/29 14:29:58;;;;;;;;;1.75;1.75;;;;;22.29;26.45;101012.72;5056983;28;45481;-61
2022/05/29 14:32:44;;;;;;;;;1.00;1.00;;;;;22.37;26.25;101018.34;5056459;28;45228;-62
2022/05/29 14:35:33;;;;;;;;;2.00;2.00;;;;;22.45;25.89;101013.06;5056588;28;46265;-62
2022/05/29 14:38:20;;;;;;;;;1.75;1.75;;;;;22.55;26.08;101007.59;5054953;28;45678;-61
2022/05/29 14:40:52;;;;;;;;;0.75;0.75;;;;;22.80;27.03;101007.09;5044424;28;45442;-62
2022/05/29 14:43:24;;;;;;;;;2.00;2.00;;;;;23.08;26.41;101005.38;5053081;28;45462;-62
2022/05/29 14:49:21;;;;;;;;;2.25;0.75;;;;;23.30;26.47;101002.34;5017397;28;45414;-62
2022/05/29 14:51:59;;;;;;;;;2.75;1.25;;;;;23.21;27.00;100997.75;5052592;28;45270;-62
2022/05/29 14:54:34;;;;;;;;;1.00;1.00;;;;;23.08;27.32;100990.84;5047348;28;45431;-62
2022/05/29 14:57:03;;;;;;;;;3.00;2.00;;;;;22.96;27.21;100976.47;5047406;28;45439;-61
2022/05/29 14:59:34;;;;;;;;;0.75;0.75;;;;;22.92;27.10;100988.69;5058907;28;45509;-62
2022/05/29 15:02:06;;;;;;;;;2.00;2.00;;;;;22.80;26.65;100987.97;5059832;28;45329;-62
2022/05/29 15:04:39;;;;;;;;;1.25;1.25;;;;;22.80;26.73;100987.97;5060073;28;45381;-62
2022/05/29 15:12:42;;;;;;;;;1.25;1.00;;;;;22.68;26.48;100960.88;5059975;28;45316;-62
2022/05/29 15:15:19;;;;;;;;;0.25;0.25;;;;;22.74;27.28;100963.94;5060616;28;45361;-62
2022/05/29 15:17:45;;;;;;;;;1.25;0.75;;;;;22.85;26.28;100962.94;5059149;28;45411;-62
2022/05/29 15:26:02;;;;;;;;;1.00;1.00;;;;;23.51;26.23;100958.41;5059865;28;45348;-62
2022/05/29 15:28:29;;;;;;;;;2.00;1.50;;;;;23.54;24.93;100954.53;5059618;28;45405;-62
2022/05/29 15:30:56;;;;;;;;;0.00;0.00;;;;;23.73;25.23;100957.19;5040095;28;45400;-64
2022/05/29 15:33:35;;;;;;;;;0.50;0.50;;;;;23.96;25.16;100944.84;5047106;28;45387;-62
2022/05/29 15:36:13;;;;;;;;;3.00;1.75;;;;;24.31;23.92;100951.47;5059695;28;45563;-61
2022/05/29 15:38:41;;;;;;;;;1.25;1.25;;;;;24.72;25.02;100945.38;5059347;28;45800;-62
2022/05/29 15:41:13;;;;;;;;;0.75;0.75;;;;;25.21;23.00;100940.34;5059454;28;46369;-62
2022/05/29 15:43:55;;;;;;;;;3.00;2.00;;;;;25.56;23.54;100931.16;5045671;28;45362;-63
2022/05/29 15:46:43;;;;;;;;;0.00;0.00;;;;;25.88;22.37;100927.75;5039126;28;45467;-62
2022/05/29 15:49:33;;;;;;;;;1.00;1.00;;;;;25.68;21.08;100923.53;5042342;28;45314;-63
2022/05/29 15:52:02;;;;;;;;;0.75;0.75;;;;;25.32;22.04;100925.50;5039087;28;45452;-63
2022/05/29 15:54:45;;;;;;;;;0.25;0.25;;;;;24.90;21.98;100937.16;5041296;28;45306;-62
2022/05/29 15:57:33;;;;;;;;;1.00;1.00;;;;;24.42;22.37;100921.06;5038979;28;45397;-62
2022/05/29 16:00:09;;;;;;;;;0.75;0.75;;;;;24.02;23.17;100924.19;5039696;28;45519;-63
2022/05/29 16:03:04;;;;;;;;;1.75;1.75;;;;;23.56;23.62;100925.97;5038860;28;47025;-61
2022/05/29 16:05:30;;;;;;;;;0.50;0.50;;;;;23.18;24.43;100915.13;5049392;28;45756;-62
2022/05/29 16:07:58;;;;;;;;;2.75;1.50;;;;;22.74;25.45;100898.34;5056922;28;45391;-62
2022/05/29 16:10:28;;;;;;;;;1.00;1.00;;;;;22.63;25.79;100914.84;5047925;28;45593;-62
2022/05/29 16:12:59;;;;;;;;;1.00;1.00;;;;;22.39;26.51;100918.00;5039757;28;47121;-62
2022/05/29 16:15:41;;;;;;;;;2.25;0.50;;;;;22.12;26.32;100921.38;5046693;28;45292;-61
2022/05/29 16:18:42;;;;;;;;;1.25;1.25;;;;;21.89;26.88;100911.66;5045641;28;45353;-62
2022/05/29 16:21:37;;;;;;;;;2.00;2.00;;;;;21.74;27.82;100921.25;5021336;28;45447;-64
2022/05/29 16:24:30;;;;;;;;;2.50;2.50;;;;;21.59;28.20;100915.31;5058481;28;46469;-63
2022/05/29 16:27:31;;;;;;;;;2.50;2.25;;;;;21.46;29.00;100910.06;5058883;28;45274;-63
2022/05/29 16:30:08;;;;;;;;;1.00;1.00;;;;;21.40;28.38;100915.22;5006086;28;45353;-62
2022/05/29 16:32:46;;;;;;;;;4.00;3.25;;;;;21.42;28.55;100907.75;5057956;28;45598;-63
2022/05/29 16:35:36;;;;;;;;;2.75;2.75;;;;;21.57;28.44;100911.84;5056555;28;46531;-61
2022/05/29 16:49:44;;;;;;;;;2.25;2.00;;;;;22.86;27.07;100897.19;5057603;28;45459;-64
2022/05/29 16:52:19;;;;;;;;;3.00;3.00;;;;;23.09;27.00;100897.72;5056493;28;45382;-64
2022/05/29 16:54:45;;;;;;;;;2.50;2.50;;;;;23.21;26.60;100895.69;5055312;28;45644;-64
2022/05/29 16:57:34;;;;;;;;;2.75;2.75;;;;;23.26;26.11;100896.09;5037598;28;45996;-63
2022/05/29 17:00:22;;;;;;;;;2.75;1.75;;;;;23.38;25.34;100889.44;5023694;28;45646;-62
2022/05/29 17:03:09;;;;;;;;;2.00;2.00;;;;;23.33;24.91;100886.28;5037369;28;45408;-63
2022/05/29 17:05:39;;;;;;;;;0.00;0.00;;;;;23.21;25.33;100885.59;5049321;28;45455;-63
2022/05/29 17:08:29;;;;;;;;;2.00;2.00;;;;;23.20;24.84;100896.69;5057017;28;45360;-62
2022/05/29 17:11:01;;;;;;;;;0.75;0.25;;;;;23.11;25.29;100892.09;5056619;28;45344;-63
2022/05/29 17:13:27;;;;;;;;;2.75;2.75;;;;;23.09;26.23;100899.59;5057650;28;45451;-62
2022/05/29 17:15:54;;;;;;;;;0.75;0.00;;;;;23.02;26.32;100878.31;5041574;28;45708;-63
2022/05/29 17:18:21;;;;;;;;;3.00;2.00;;;;;23.08;25.47;100892.38;5043147;28;46578;-62
2022/05/29 17:20:56;;;;;;;;;1.75;1.25;;;;;22.99;26.54;100896.88;5056465;28;45613;-64
2022/05/29 17:23:32;;;;;;;;;2.50;1.25;;;;;22.87;26.42;100896.19;5058048;28;45262;-63